createdAt,value
2023-01-15T00:02:26.729Z,96061.00
2023-01-15T00:04:54.365Z,96051.97
2023-01-15T00:07:21.992Z,96059.84
2023-01-15T00:09:50.911Z,96053.59
2023-01-15T00:12:18.507Z,96055.72
2023-01-15T00:14:47.759Z,96032.63
2023-01-15T00:17:15.379Z,96035.06
2023-01-15T00:19:43.021Z,96027.56
2023-01-15T00:22:10.620Z,96033.09
2023-01-15T00:24:56.015Z,96036.50
2023-01-15T00:27:44.141Z,96032.75
2023-01-15T00:30:15.584Z,96022.41
2023-01-15T00:32:44.257Z,96027.78
2023-01-15T00:35:13.804Z,96020.97
2023-01-15T00:37:41.377Z,96019.72
2023-01-15T00:40:10.371Z,96034.31
2023-01-15T00:42:37.968Z,96028.56
2023-01-15T00:45:10.058Z,96027.13
2023-01-15T00:47:39.380Z,96024.16
2023-01-15T00:50:08.686Z,96023.50
2023-01-15T00:52:36.343Z,96009.56
2023-01-15T00:55:04.499Z,96021.69
2023-01-15T00:57:32.129Z,96020.53
2023-01-15T00:59:59.953Z,96013.13
2023-01-15T01:02:27.548Z,96012.66
2023-01-15T01:04:56.422Z,96001.97
2023-01-15T01:07:23.960Z,96010.03
2023-01-15T01:09:51.476Z,95997.91
2023-01-15T01:12:21.264Z,96002.31
2023-01-15T01:14:48.789Z,95994.81
2023-01-15T01:17:16.350Z,95998.53
2023-01-15T01:19:43.886Z,95994.09
2023-01-15T01:22:12.793Z,95988.56
2023-01-15T01:24:40.359Z,95998.94
2023-01-15T01:27:07.864Z,95994.13
2023-01-15T01:29:35.388Z,95985.97
2023-01-15T01:32:02.981Z,95983.91
2023-01-15T01:34:30.507Z,95977.66
2023-01-15T01:36:59.313Z,95975.03
2023-01-15T01:39:28.159Z,95972.56
2023-01-15T01:41:55.829Z,95954.63
2023-01-15T01:44:56.677Z,95953.28
2023-01-15T01:47:25.857Z,95937.91
2023-01-15T01:49:55.764Z,95943.31
2023-01-15T01:52:26.854Z,95944.84
2023-01-15T01:54:56.449Z,95943.41
2023-01-15T01:57:24.867Z,95930.28
2023-01-15T01:59:52.576Z,95937.50
2023-01-15T02:02:21.825Z,95916.03
2023-01-15T02:04:49.634Z,95918.66
2023-01-15T02:07:17.523Z,95918.97
2023-01-15T02:09:45.223Z,95912.09
2023-01-15T02:12:18.036Z,95914.53
2023-01-15T02:14:50.662Z,95910.28
2023-01-15T02:17:23.385Z,95907.38
2023-01-15T02:19:55.410Z,95902.56
2023-01-15T02:22:31.303Z,95885.47
2023-01-15T02:25:04.741Z,95887.53
2023-01-15T02:27:34.553Z,95873.06
2023-01-15T02:30:05.646Z,95882.25
2023-01-15T02:32:36.637Z,95865.19
2023-01-15T02:35:08.474Z,95872.63
2023-01-15T02:37:39.156Z,95863.28
2023-01-15T02:40:08.633Z,95864.75
2023-01-15T02:42:38.010Z,95863.28
2023-01-15T02:45:07.796Z,95854.25
2023-01-15T02:47:36.756Z,95862.94
2023-01-15T02:50:06.647Z,95840.75
2023-01-15T02:52:38.519Z,95851.72
2023-01-15T02:55:09.309Z,95851.72
2023-01-15T02:57:39.083Z,95835.97
2023-01-15T03:00:10.407Z,95834.16
2023-01-15T03:02:41.273Z,95831.09
2023-01-15T03:05:11.144Z,95824.03
2023-01-15T03:07:43.716Z,95817.00
2023-01-15T03:10:12.320Z,95823.66
2023-01-15T03:12:59.756Z,95817.06
2023-01-15T03:15:42.528Z,95810.81
2023-01-15T03:18:12.299Z,95801.16
2023-01-15T03:20:44.162Z,95807.66
2023-01-15T03:23:15.080Z,95813.56
2023-01-15T03:25:46.208Z,95817.34
2023-01-15T03:28:15.634Z,95811.91
2023-01-15T03:30:43.239Z,95810.03
2023-01-15T03:33:11.795Z,95805.56
2023-01-15T03:35:48.702Z,95795.19
2023-01-15T03:38:19.736Z,95797.53
2023-01-15T03:40:51.745Z,95792.91
2023-01-15T03:43:39.916Z,95794.72
2023-01-15T03:46:15.291Z,95777.44
2023-01-15T03:48:46.840Z,95767.31
2023-01-15T03:51:18.407Z,95764.84
2023-01-15T03:53:49.497Z,95771.34
2023-01-15T03:56:19.629Z,95764.22
2023-01-15T03:58:50.910Z,95762.56
2023-01-15T04:01:21.307Z,95762.31
2023-01-15T04:03:49.996Z,95764.69
2023-01-15T04:06:18.366Z,95765.06
2023-01-15T04:08:47.082Z,95763.59
2023-01-15T04:11:14.643Z,95754.09
2023-01-15T04:13:42.179Z,95748.22
2023-01-15T04:16:11.054Z,95760.16
2023-01-15T04:18:38.635Z,95768.94
2023-01-15T04:21:06.868Z,95759.81
2023-01-15T04:23:34.425Z,95766.94
2023-01-15T04:26:01.965Z,95751.56
2023-01-15T04:28:29.554Z,95763.41
2023-01-15T04:30:58.214Z,95762.31
2023-01-15T04:33:27.252Z,95757.44
2023-01-15T04:35:54.761Z,95754.09
2023-01-15T04:38:22.266Z,95738.19
2023-01-15T04:41:07.420Z,95738.81
2023-01-15T04:43:52.787Z,95748.09
2023-01-15T04:46:22.418Z,95744.31
2023-01-15T04:48:51.597Z,95741.34
2023-01-15T04:51:19.175Z,95733.00
2023-01-15T04:53:46.776Z,95732.75
2023-01-15T04:56:14.314Z,95728.69
2023-01-15T04:58:41.969Z,95736.94
2023-01-15T05:01:12.691Z,95722.44
2023-01-15T05:03:40.340Z,95728.97
2023-01-15T05:06:10.582Z,95722.09
2023-01-15T05:08:38.281Z,95722.25
2023-01-15T05:11:07.685Z,95721.00
2023-01-15T05:13:35.378Z,95721.97
2023-01-15T05:16:14.474Z,95727.16
2023-01-15T05:18:42.587Z,95707.50
2023-01-15T05:21:16.719Z,95714.84
2023-01-15T05:23:44.295Z,95709.50
2023-01-15T05:26:12.054Z,95723.25
2023-01-15T05:28:39.847Z,95703.38
2023-01-15T05:31:09.371Z,95708.63
2023-01-15T05:33:37.949Z,95703.19
2023-01-15T05:36:07.454Z,95694.34
2023-01-15T05:38:36.531Z,95694.59
2023-01-15T05:41:25.410Z,95689.47
2023-01-15T05:43:53.231Z,95696.59
2023-01-15T05:46:20.786Z,95683.22
2023-01-15T05:48:48.386Z,95676.34
2023-01-15T05:51:16.025Z,95674.09
2023-01-15T05:53:45.131Z,95678.97
2023-01-15T05:56:12.690Z,95669.09
2023-01-15T05:58:40.246Z,95653.28
2023-01-15T06:01:09.031Z,95670.09
2023-01-15T06:03:36.752Z,95666.66
2023-01-15T06:06:04.967Z,95658.25
2023-01-15T06:08:32.524Z,95664.50
2023-01-15T06:11:01.389Z,95666.47
2023-01-15T06:13:28.914Z,95664.00
2023-01-15T06:15:56.566Z,95664.00
2023-01-15T06:18:24.655Z,95676.75
2023-01-15T06:20:52.199Z,95671.25
2023-01-15T06:23:20.036Z,95682.38
2023-01-15T06:25:51.310Z,95671.44
2023-01-15T06:28:20.176Z,95668.00
2023-01-15T06:30:47.709Z,95662.22
2023-01-15T06:33:15.278Z,95663.38
2023-01-15T06:35:42.807Z,95657.03
2023-01-15T06:38:10.376Z,95649.53
2023-01-15T06:40:38.118Z,95655.59
2023-01-15T06:43:23.248Z,95647.16
2023-01-15T06:46:09.891Z,95641.88
2023-01-15T06:48:37.510Z,95643.34
2023-01-15T06:51:05.040Z,95620.19
2023-01-15T06:53:32.568Z,95638.88
2023-01-15T06:56:00.145Z,95640.47
2023-01-15T06:58:27.788Z,95627.13
2023-01-15T07:00:56.813Z,95632.25
2023-01-15T07:03:24.689Z,95631.25
2023-01-15T07:05:52.262Z,95631.63
2023-01-15T07:08:19.930Z,95631.25
2023-01-15T07:10:47.449Z,95620.72
2023-01-15T07:13:14.959Z,95620.72
2023-01-15T07:15:42.491Z,95617.34
2023-01-15T07:18:11.357Z,95622.16
2023-01-15T07:20:39.180Z,95614.16
2023-01-15T07:23:06.765Z,95614.47
2023-01-15T07:25:34.291Z,95624.03
2023-01-15T07:28:02.526Z,95619.19
2023-01-15T07:30:30.022Z,95613.94
2023-01-15T07:32:57.709Z,95616.78
2023-01-15T07:35:26.594Z,95615.94
2023-01-15T07:37:54.102Z,95620.34
2023-01-15T07:40:21.623Z,95617.72
2023-01-15T07:43:06.055Z,95608.38
2023-01-15T07:46:02.894Z,95617.16
2023-01-15T07:48:49.030Z,95609.50
2023-01-15T07:51:18.772Z,95610.91
2023-01-15T07:53:46.475Z,95608.44
2023-01-15T07:56:14.137Z,95601.63
2023-01-15T07:58:41.687Z,95607.75
2023-01-15T08:01:09.316Z,95592.66
2023-01-15T08:03:36.898Z,95606.81
2023-01-15T08:06:04.664Z,95602.56
2023-01-15T08:08:33.610Z,95599.03
2023-01-15T08:11:20.200Z,95597.31
2023-01-15T08:14:05.611Z,95614.75
2023-01-15T08:16:36.612Z,95610.56
2023-01-15T08:19:04.613Z,95617.84
2023-01-15T08:21:32.205Z,95625.72
2023-01-15T08:24:01.062Z,95640.91
2023-01-15T08:26:29.996Z,95626.50
2023-01-15T08:28:57.514Z,95631.81
2023-01-15T08:31:25.206Z,95627.75
2023-01-15T08:33:52.775Z,95629.75
2023-01-15T08:36:20.310Z,95628.38
2023-01-15T08:38:50.089Z,95636.25
2023-01-15T08:41:19.005Z,95634.88
2023-01-15T08:43:46.725Z,95633.69
2023-01-15T08:46:14.409Z,95643.25
2023-01-15T08:48:42.052Z,95635.47
2023-01-15T08:51:11.189Z,95635.28
2023-01-15T08:53:39.687Z,95631.94
2023-01-15T08:56:13.210Z,95646.38
2023-01-15T08:58:42.043Z,95641.91
2023-01-15T09:01:11.828Z,95649.41
2023-01-15T09:03:39.766Z,95667.25
2023-01-15T09:06:07.390Z,95669.06
2023-01-15T09:08:35.146Z,95684.25
2023-01-15T09:11:03.827Z,95710.09
2023-01-15T09:13:31.908Z,95731.00
2023-01-15T09:16:01.704Z,95733.13
2023-01-15T09:18:29.365Z,95735.25
2023-01-15T09:20:57.892Z,95728.63
2023-01-15T09:23:25.564Z,95742.84
2023-01-15T09:25:53.907Z,95732.47
2023-01-15T09:28:21.451Z,95760.22
2023-01-15T09:30:49.209Z,95748.72
2023-01-15T09:33:18.150Z,95766.19
2023-01-15T09:35:45.766Z,95765.81
2023-01-15T09:38:13.395Z,95768.03
2023-01-15T09:40:49.124Z,95777.84
2023-01-15T09:43:27.392Z,95777.19
2023-01-15T09:45:58.210Z,95777.72
2023-01-15T09:48:37.578Z,95770.56
2023-01-15T09:51:16.193Z,95772.41
2023-01-15T09:54:01.867Z,95781.16
2023-01-15T09:56:32.879Z,95786.97
2023-01-15T09:59:02.758Z,95794.41
2023-01-15T10:01:32.635Z,95797.66
2023-01-15T10:04:04.642Z,95809.56
2023-01-15T10:06:35.726Z,95800.41
2023-01-15T10:09:07.484Z,95799.59
2023-01-15T10:11:59.804Z,95818.38
2023-01-15T10:14:39.058Z,95825.13
2023-01-15T10:17:26.302Z,95830.78
2023-01-15T10:19:55.512Z,95831.31
2023-01-15T10:22:37.634Z,95834.84
2023-01-15T10:25:10.826Z,95843.72
2023-01-15T10:27:40.147Z,95861.78
2023-01-15T10:30:12.840Z,95869.72
2023-01-15T10:33:01.048Z,95868.97
2023-01-15T10:35:40.469Z,95883.28
2023-01-15T10:38:15.464Z,95877.09
2023-01-15T10:41:07.397Z,95879.19
2023-01-15T10:43:48.039Z,95886.53
2023-01-15T10:46:17.640Z,95872.41
2023-01-15T10:48:47.114Z,95877.09
2023-01-15T10:51:18.837Z,95885.09
2023-01-15T10:53:50.940Z,95882.69
2023-01-15T10:56:25.701Z,95884.22
2023-01-15T10:58:56.352Z,95907.97
2023-01-15T11:01:27.005Z,95916.19
2023-01-15T11:03:55.152Z,95913.75
2023-01-15T11:06:25.152Z,95923.34
2023-01-15T11:09:11.460Z,95909.41
2023-01-15T11:11:56.265Z,95911.22
2023-01-15T11:14:51.391Z,95925.16
2023-01-15T11:17:36.860Z,95929.78
2023-01-15T11:20:05.251Z,95931.56
2023-01-15T11:22:39.623Z,95937.44
2023-01-15T11:25:10.768Z,95930.56
2023-01-15T11:27:38.655Z,95924.59
2023-01-15T11:30:08.227Z,95915.72
2023-01-15T11:32:37.623Z,95921.69
2023-01-15T11:35:16.265Z,95934.91
2023-01-15T11:37:45.506Z,95935.34
2023-01-15T11:40:19.509Z,95933.88
2023-01-15T11:43:04.850Z,95929.81
2023-01-15T11:45:50.232Z,95946.53
2023-01-15T11:48:40.721Z,95940.69
2023-01-15T11:51:09.592Z,95936.63
2023-01-15T11:53:43.294Z,95947.03
2023-01-15T11:56:14.476Z,95934.16
2023-01-15T11:58:45.587Z,95917.94
2023-01-15T12:01:15.612Z,95936.66
2023-01-15T12:03:43.447Z,95954.28
2023-01-15T12:06:14.108Z,95946.13
2023-01-15T12:08:51.672Z,95940.69
2023-01-15T12:11:27.761Z,95931.38
2023-01-15T12:14:05.683Z,95935.63
2023-01-15T12:16:40.555Z,95940.59
2023-01-15T12:19:11.932Z,95937.31
2023-01-15T12:21:49.622Z,95963.66
2023-01-15T12:24:40.801Z,95956.25
2023-01-15T12:27:20.921Z,95967.63
2023-01-15T12:29:54.051Z,95993.34
2023-01-15T12:32:25.657Z,96003.81
2023-01-15T12:34:56.761Z,95989.06
2023-01-15T12:37:26.547Z,96003.75
2023-01-15T12:40:00.097Z,95999.44
2023-01-15T12:42:46.852Z,95997.66
2023-01-15T12:45:17.986Z,95985.22
2023-01-15T12:47:49.401Z,95977.47
2023-01-15T12:50:25.656Z,95987.59
2023-01-15T12:52:56.172Z,96001.56
2023-01-15T12:55:28.160Z,96041.13
2023-01-15T12:57:57.994Z,96059.00
2023-01-15T13:00:28.380Z,96058.59
2023-01-15T13:03:01.487Z,96052.44
2023-01-15T13:05:31.182Z,96040.31
2023-01-15T13:08:02.443Z,96047.34
2023-01-15T13:10:35.343Z,96050.31
2023-01-15T13:13:14.849Z,96048.13
2023-01-15T13:15:51.168Z,96042.91
2023-01-15T13:18:23.084Z,96050.25
2023-01-15T13:20:52.034Z,96065.34
2023-01-15T13:23:36.747Z,96053.44
2023-01-15T13:26:18.365Z,96058.41
2023-01-15T13:28:55.978Z,96063.31
2023-01-15T13:31:53.426Z,96073.16
2023-01-15T13:34:27.773Z,96075.78
2023-01-15T13:36:57.673Z,96085.13
2023-01-15T13:39:27.548Z,96091.84
2023-01-15T13:42:21.680Z,96093.78
2023-01-15T13:44:52.703Z,96075.84
2023-01-15T13:47:23.556Z,96097.13
2023-01-15T13:49:53.544Z,96101.06
2023-01-15T13:52:25.147Z,96113.50
2023-01-15T13:54:54.033Z,96119.75
2023-01-15T13:57:34.204Z,96121.56
2023-01-15T14:00:04.606Z,96124.88
2023-01-15T14:02:34.594Z,96128.47
2023-01-15T14:05:14.011Z,96137.16
2023-01-15T14:07:41.569Z,96162.53
2023-01-15T14:10:11.448Z,96153.06
2023-01-15T14:12:46.560Z,96169.91
2023-01-15T14:15:23.033Z,96175.97
2023-01-15T14:18:02.098Z,96185.97
2023-01-15T14:20:38.620Z,96182.34
2023-01-15T14:23:23.022Z,96184.81
2023-01-15T14:25:59.542Z,96174.66
2023-01-15T14:28:54.952Z,96181.03
2023-01-15T14:31:33.774Z,96184.31
2023-01-15T14:34:17.675Z,96193.16
2023-01-15T14:36:52.806Z,96187.25
2023-01-15T14:39:26.611Z,96200.69
2023-01-15T14:42:17.295Z,96178.09
2023-01-15T14:44:46.621Z,96199.69
2023-01-15T14:47:27.941Z,96203.78
2023-01-15T14:50:18.222Z,96210.13
2023-01-15T14:52:46.445Z,96211.44
2023-01-15T14:55:14.593Z,96216.19
2023-01-15T14:57:43.139Z,96231.06
2023-01-15T15:00:18.188Z,96226.81
2023-01-15T15:02:46.509Z,96228.09
2023-01-15T15:05:16.298Z,96228.09
2023-01-15T15:07:44.963Z,96215.00
2023-01-15T15:10:20.478Z,96217.44
2023-01-15T15:12:52.889Z,96232.47
2023-01-15T15:15:32.605Z,96232.31
2023-01-15T15:18:05.972Z,96225.44
2023-01-15T15:20:43.580Z,96223.13
2023-01-15T15:23:14.166Z,96217.88
2023-01-15T15:25:43.094Z,96235.03
2023-01-15T15:28:12.263Z,96236.47
2023-01-15T15:30:45.043Z,96231.22
2023-01-15T15:33:18.384Z,96248.91
2023-01-15T15:35:48.203Z,96251.00
2023-01-15T15:38:17.980Z,96248.25
2023-01-15T15:40:48.306Z,96255.56
2023-01-15T15:43:35.285Z,96260.31
2023-01-15T15:46:21.836Z,96260.97
2023-01-15T15:48:53.319Z,96262.91
2023-01-15T15:51:26.769Z,96253.22
2023-01-15T15:54:07.036Z,96253.19
2023-01-15T15:56:35.153Z,96265.44
2023-01-15T15:59:05.202Z,96271.41
2023-01-15T16:01:39.092Z,96269.63
2023-01-15T16:04:07.148Z,96275.84
2023-01-15T16:06:36.343Z,96267.34
2023-01-15T16:09:06.456Z,96274.56
2023-01-15T16:11:34.814Z,96273.22
2023-01-15T16:14:06.781Z,96282.34
2023-01-15T16:16:35.935Z,96289.22
2023-01-15T16:19:04.698Z,96292.50
2023-01-15T16:21:34.574Z,96298.06
2023-01-15T16:24:03.546Z,96293.00
2023-01-15T16:26:34.136Z,96293.00
2023-01-15T16:29:03.280Z,96299.38
2023-01-15T16:31:35.268Z,96300.34
2023-01-15T16:34:03.955Z,96298.34
2023-01-15T16:36:39.349Z,96303.88
2023-01-15T16:39:07.831Z,96300.41
2023-01-15T16:41:39.912Z,96302.38
2023-01-15T16:44:07.989Z,96302.69
2023-01-15T16:46:40.244Z,96305.97
2023-01-15T16:49:24.087Z,96299.47
2023-01-15T16:51:53.010Z,96316.13
2023-01-15T16:54:43.381Z,96307.50
2023-01-15T16:57:33.634Z,96306.28
2023-01-15T17:00:05.062Z,96317.72
2023-01-15T17:02:44.081Z,96310.41
2023-01-15T17:05:24.681Z,96322.69
2023-01-15T17:07:54.177Z,96322.34
2023-01-15T17:10:23.708Z,96316.38
2023-01-15T17:12:51.562Z,96320.31
2023-01-15T17:15:39.791Z,96303.81
2023-01-15T17:18:26.166Z,96308.75
2023-01-15T17:20:53.943Z,96324.69
2023-01-15T17:23:25.503Z,96322.59
2023-01-15T17:25:53.220Z,96334.41
2023-01-15T17:28:24.337Z,96336.94
2023-01-15T17:30:53.529Z,96328.22
2023-01-15T17:33:22.583Z,96328.47
2023-01-15T17:35:50.122Z,96320.03
2023-01-15T17:38:18.825Z,96329.78
2023-01-15T17:40:46.969Z,96329.25
2023-01-15T17:43:16.253Z,96334.28
2023-01-15T17:45:43.888Z,96334.38
2023-01-15T17:48:13.368Z,96322.28
2023-01-15T17:50:42.312Z,96320.84
2023-01-15T17:53:10.143Z,96323.44
2023-01-15T17:55:55.150Z,96316.69
2023-01-15T17:58:40.688Z,96318.53
2023-01-15T18:01:33.296Z,96326.06
2023-01-15T18:04:18.648Z,96327.06
2023-01-15T18:06:50.986Z,96322.31
2023-01-15T18:09:20.334Z,96339.88
2023-01-15T18:11:48.073Z,96336.31
2023-01-15T18:14:15.706Z,96337.28
2023-01-15T18:16:43.230Z,96324.59
2023-01-15T18:19:10.896Z,96331.38
2023-01-15T18:21:39.910Z,96337.97
2023-01-15T18:24:11.649Z,96337.88
2023-01-15T18:26:39.744Z,96333.91
2023-01-15T18:29:07.952Z,96324.56
2023-01-15T18:31:37.729Z,96320.59
2023-01-15T18:34:05.354Z,96326.25
2023-01-15T18:36:33.083Z,96318.44
2023-01-15T18:39:06.098Z,96319.94
2023-01-15T18:41:53.829Z,96320.63
2023-01-15T18:44:40.105Z,96318.44
2023-01-15T18:47:12.092Z,96317.75
2023-01-15T18:49:40.652Z,96310.50
2023-01-15T18:52:26.543Z,96307.22
2023-01-15T18:54:54.606Z,96311.31
2023-01-15T18:57:23.690Z,96313.66
2023-01-15T18:59:51.800Z,96317.50
2023-01-15T19:02:20.838Z,96317.50
2023-01-15T19:04:48.947Z,96309.13
2023-01-15T19:07:17.182Z,96319.00
2023-01-15T19:09:44.758Z,96325.72
2023-01-15T19:12:13.672Z,96326.53
2023-01-15T19:15:00.499Z,96317.09
2023-01-15T19:17:45.896Z,96314.19
2023-01-15T19:20:16.833Z,96318.06
2023-01-15T19:23:05.800Z,96318.34
2023-01-15T19:25:38.236Z,96317.94
2023-01-15T19:28:06.277Z,96310.69
2023-01-15T19:30:37.398Z,96316.69
2023-01-15T19:33:05.143Z,96310.78
2023-01-15T19:35:32.718Z,96306.16
2023-01-15T19:38:00.336Z,96314.06
2023-01-15T19:40:28.711Z,96305.88
2023-01-15T19:43:14.077Z,96311.06
2023-01-15T19:46:02.774Z,96312.84
2023-01-15T19:48:48.301Z,96309.56
2023-01-15T19:51:15.859Z,96310.91
2023-01-15T19:53:43.386Z,96316.13
2023-01-15T19:56:10.949Z,96306.28
2023-01-15T19:58:38.543Z,96305.72
2023-01-15T20:01:14.739Z,96305.19
2023-01-15T20:03:42.299Z,96307.50
2023-01-15T20:06:10.087Z,96306.81
2023-01-15T20:08:37.651Z,96311.06
2023-01-15T20:11:09.372Z,96302.03
2023-01-15T20:13:59.653Z,96301.50
2023-01-15T20:16:28.839Z,96297.09
2023-01-15T20:18:56.435Z,96303.81
2023-01-15T20:21:24.016Z,96292.31
2023-01-15T20:23:51.566Z,96297.25
2023-01-15T20:26:19.090Z,96294.50
2023-01-15T20:28:47.680Z,96291.88
2023-01-15T20:31:16.531Z,96294.34
2023-01-15T20:33:45.726Z,96297.09
2023-01-15T20:36:13.291Z,96294.63
2023-01-15T20:38:40.812Z,96290.78
2023-01-15T20:41:40.983Z,96278.31
2023-01-15T20:44:26.510Z,96276.25
2023-01-15T20:46:54.736Z,96267.94
2023-01-15T20:49:28.104Z,96268.47
2023-01-15T20:51:56.574Z,96272.97
2023-01-15T20:54:25.178Z,96265.06
2023-01-15T20:56:52.789Z,96266.81
2023-01-15T20:59:20.538Z,96264.59
2023-01-15T21:01:48.193Z,96263.25
2023-01-15T21:04:15.876Z,96269.28
2023-01-15T21:06:45.007Z,96267.22
2023-01-15T21:09:12.557Z,96268.47
2023-01-15T21:11:40.079Z,96263.53
2023-01-15T21:14:07.690Z,96257.66
2023-01-15T21:16:35.286Z,96261.09
2023-01-15T21:19:04.715Z,96251.88
2023-01-15T21:21:32.679Z,96253.66
2023-01-15T21:24:02.196Z,96253.00
2023-01-15T21:26:30.911Z,96260.22
2023-01-15T21:28:58.680Z,96253.94
2023-01-15T21:31:26.264Z,96252.41
2023-01-15T21:33:54.295Z,96255.28
2023-01-15T21:36:22.271Z,96236.69
2023-01-15T21:38:51.441Z,96245.19
2023-01-15T21:41:20.306Z,96232.19
2023-01-15T21:44:05.685Z,96233.00
2023-01-15T21:46:33.221Z,96234.91
2023-01-15T21:49:00.736Z,96229.03
2023-01-15T21:51:28.343Z,96223.13
2023-01-15T21:54:00.035Z,96214.78
2023-01-15T21:56:29.372Z,96202.59
2023-01-15T21:58:56.966Z,96206.94
2023-01-15T22:01:25.858Z,96196.97
2023-01-15T22:03:53.488Z,96197.94
2023-01-15T22:06:21.010Z,96195.22
2023-01-15T22:08:48.490Z,96198.06
2023-01-15T22:11:16.079Z,96193.97
2023-01-15T22:13:45.019Z,96181.66
2023-01-15T22:16:12.533Z,96176.56
2023-01-15T22:18:40.914Z,96172.31
2023-01-15T22:21:14.773Z,96165.47
2023-01-15T22:23:42.846Z,96163.81
2023-01-15T22:26:17.424Z,96162.47
2023-01-15T22:28:46.355Z,96153.69
2023-01-15T22:31:14.547Z,96151.09
2023-01-15T22:33:42.119Z,96149.69
2023-01-15T22:36:12.989Z,96143.56
2023-01-15T22:38:40.595Z,96130.56
2023-01-15T22:41:08.217Z,96125.88
2023-01-15T22:43:36.480Z,96122.59
2023-01-15T22:46:13.256Z,96120.84
2023-01-15T22:48:41.104Z,96114.69
2023-01-15T22:51:08.675Z,96113.44
2023-01-15T22:53:37.011Z,96103.88
2023-01-15T22:56:05.361Z,96099.63
2023-01-15T22:58:32.888Z,96096.19
2023-01-15T23:01:00.494Z,96095.69
2023-01-15T23:03:29.440Z,96094.56
2023-01-15T23:05:56.983Z,96086.34
2023-01-15T23:08:26.192Z,96076.22
2023-01-15T23:10:53.785Z,96073.75
2023-01-15T23:13:21.362Z,96078.13
2023-01-15T23:15:57.283Z,96065.25
2023-01-15T23:18:24.992Z,96051.88
2023-01-15T23:20:53.893Z,96052.13
2023-01-15T23:23:21.443Z,96046.09
2023-01-15T23:25:50.032Z,96044.44
2023-01-15T23:28:17.806Z,96037.59
2023-01-15T23:30:45.398Z,96029.13
2023-01-15T23:33:13.074Z,96027.22
2023-01-15T23:35:40.612Z,96019.00
2023-01-15T23:38:09.456Z,96023.25
2023-01-15T23:40:40.009Z,96020.25
2023-01-15T23:43:25.541Z,96014.94
2023-01-15T23:46:10.853Z,96013.16
2023-01-15T23:48:38.392Z,96011.28
2023-01-15T23:51:06.317Z,95999.38
2023-01-15T23:53:35.171Z,96003.22
2023-01-15T23:56:04.605Z,95999.38
2023-01-15T23:58:32.593Z,95994.47
